sensor_id;sensor_type;location;lat;lon;timestamp;P1;durP1;ratioP1;P2;durP2;ratioP2
18752;SDS011;9505;50.882;5.350;2023-02-28T00:00:44;40.58;;;7.78;;
18752;SDS011;9505;50.882;5.350;2023-02-28T00:03:10;36.95;;;6.90;;
18752;SDS011;9505;50.882;5.350;2023-02-28T00:05:36;40.13;;;7.57;;
18752;SDS011;9505;50.882;5.350;2023-02-28T00:08:01;31.33;;;6.25;;
18752;SDS011;9505;50.882;5.350;2023-02-28T00:10:28;33.80;;;6.38;;
18752;SDS011;9505;50.882;5.350;2023-02-28T00:12:56;36.83;;;6.82;;
18752;SDS011;9505;50.882;5.350;2023-02-28T00:15:26;39.17;;;7.20;;
18752;SDS011;9505;50.882;5.350;2023-02-28T00:17:51;35.47;;;7.05;;
18752;SDS011;9505;50.882;5.350;2023-02-28T00:20:17;34.75;;;6.57;;
18752;SDS011;9505;50.882;5.350;2023-02-28T00:22:44;35.95;;;6.55;;
18752;SDS011;9505;50.882;5.350;2023-02-28T00:25:12;40.92;;;6.88;;
18752;SDS011;9505;50.882;5.350;2023-02-28T00:27:40;32.60;;;6.78;;
18752;SDS011;9505;50.882;5.350;2023-02-28T00:30:06;32.38;;;6.65;;
18752;SDS011;9505;50.882;5.350;2023-02-28T00:32:34;37.22;;;7.00;;
18752;SDS011;9505;50.882;5.350;2023-02-28T00:35:00;38.08;;;7.18;;
18752;SDS011;9505;50.882;5.350;2023-02-28T00:37:26;43.90;;;7.93;;
18752;SDS011;9505;50.882;5.350;2023-02-28T00:39:52;37.00;;;6.63;;
18752;SDS011;9505;50.882;5.350;2023-02-28T00:42:17;36.15;;;6.47;;
18752;SDS011;9505;50.882;5.350;2023-02-28T00:44:43;31.08;;;6.63;;
18752;SDS011;9505;50.882;5.350;2023-02-28T00:47:08;38.33;;;7.20;;
18752;SDS011;9505;50.882;5.350;2023-02-28T00:49:34;36.60;;;7.20;;
18752;SDS011;9505;50.882;5.350;2023-02-28T00:51:59;38.50;;;7.65;;
18752;SDS011;9505;50.882;5.350;2023-02-28T00:54:25;35.75;;;6.90;;
18752;SDS011;9505;50.882;5.350;2023-02-28T00:56:51;37.25;;;7.45;;
18752;SDS011;9505;50.882;5.350;2023-02-28T00:59:17;33.35;;;6.75;;
18752;SDS011;9505;50.882;5.350;2023-02-28T01:01:43;28.97;;;6.63;;
18752;SDS011;9505;50.882;5.350;2023-02-28T01:04:10;40.13;;;7.20;;
18752;SDS011;9505;50.882;5.350;2023-02-28T01:06:37;34.87;;;6.67;;
18752;SDS011;9505;50.882;5.350;2023-02-28T01:09:03;33.57;;;6.80;;
18752;SDS011;9505;50.882;5.350;2023-02-28T01:11:30;37.80;;;7.60;;
18752;SDS011;9505;50.882;5.350;2023-02-28T01:13:56;38.47;;;7.57;;
18752;SDS011;9505;50.882;5.350;2023-02-28T01:16:22;44.00;;;7.83;;
18752;SDS011;9505;50.882;5.350;2023-02-28T01:18:48;36.83;;;7.27;;
18752;SDS011;9505;50.882;5.350;2023-02-28T01:21:15;35.40;;;7.18;;
18752;SDS011;9505;50.882;5.350;2023-02-28T01:23:42;37.63;;;8.00;;
18752;SDS011;9505;50.882;5.350;2023-02-28T01:26:09;47.67;;;8.70;;
18752;SDS011;9505;50.882;5.350;2023-02-28T01:28:36;35.77;;;7.43;;
18752;SDS011;9505;50.882;5.350;2023-02-28T01:31:02;34.63;;;7.80;;
18752;SDS011;9505;50.882;5.350;2023-02-28T01:33:28;39.37;;;8.30;;
18752;SDS011;9505;50.882;5.350;2023-02-28T01:38:48;40.07;;;7.77;;
18752;SDS011;9505;50.882;5.350;2023-02-28T01:41:15;45.20;;;8.80;;
18752;SDS011;9505;50.882;5.350;2023-02-28T01:46:12;42.90;;;7.83;;
18752;SDS011;9505;50.882;5.350;2023-02-28T01:48:38;45.53;;;8.82;;
18752;SDS011;9505;50.882;5.350;2023-02-28T01:51:09;35.17;;;7.10;;
18752;SDS011;9505;50.882;5.350;2023-02-28T01:53:51;31.30;;;6.45;;
18752;SDS011;9505;50.882;5.350;2023-02-28T01:56:20;42.90;;;7.57;;
18752;SDS011;9505;50.882;5.350;2023-02-28T01:58:54;40.87;;;8.13;;
18752;SDS011;9505;50.882;5.350;2023-02-28T02:01:21;33.67;;;7.50;;
18752;SDS011;9505;50.882;5.350;2023-02-28T02:03:51;45.03;;;7.60;;
18752;SDS011;9505;50.882;5.350;2023-02-28T02:06:22;37.33;;;7.43;;
18752;SDS011;9505;50.882;5.350;2023-02-28T02:09:00;35.67;;;7.40;;
18752;SDS011;9505;50.882;5.350;2023-02-28T02:11:26;37.07;;;7.07;;
18752;SDS011;9505;50.882;5.350;2023-02-28T02:19:06;35.00;;;7.33;;
18752;SDS011;9505;50.882;5.350;2023-02-28T02:27:17;33.67;;;7.30;;
18752;SDS011;9505;50.882;5.350;2023-02-28T02:37:43;38.80;;;8.70;;
18752;SDS011;9505;50.882;5.350;2023-02-28T02:43:19;37.83;;;8.27;;
18752;SDS011;9505;50.882;5.350;2023-02-28T02:45:59;38.50;;;8.63;;
18752;SDS011;9505;50.882;5.350;2023-02-28T02:48:30;42.60;;;8.60;;
18752;SDS011;9505;50.882;5.350;2023-02-28T02:50:59;40.47;;;8.10;;
18752;SDS011;9505;50.882;5.350;2023-02-28T02:53:33;37.40;;;7.77;;
18752;SDS011;9505;50.882;5.350;2023-02-28T02:56:03;38.40;;;7.80;;
18752;SDS011;9505;50.882;5.350;2023-02-28T02:58:34;41.00;;;7.90;;
18752;SDS011;9505;50.882;5.350;2023-02-28T03:01:07;41.13;;;7.97;;
18752;SDS011;9505;50.882;5.350;2023-02-28T03:03:39;43.13;;;9.13;;
18752;SDS011;9505;50.882;5.350;2023-02-28T03:06:05;39.80;;;7.83;;
18752;SDS011;9505;50.882;5.350;2023-02-28T03:08:35;46.47;;;8.80;;
18752;SDS011;9505;50.882;5.350;2023-02-28T03:11:04;35.00;;;7.73;;
18752;SDS011;9505;50.882;5.350;2023-02-28T03:19:31;39.13;;;8.37;;
18752;SDS011;9505;50.882;5.350;2023-02-28T03:30:33;39.67;;;8.40;;
18752;SDS011;9505;50.882;5.350;2023-02-28T03:33:08;42.60;;;8.73;;
18752;SDS011;9505;50.882;5.350;2023-02-28T03:35:45;36.83;;;7.90;;
18752;SDS011;9505;50.882;5.350;2023-02-28T03:38:17;39.57;;;8.00;;
18752;SDS011;9505;50.882;5.350;2023-02-28T03:41:06;45.47;;;8.27;;
18752;SDS011;9505;50.882;5.350;2023-02-28T03:43:41;38.80;;;8.07;;
18752;SDS011;9505;50.882;5.350;2023-02-28T03:46:12;41.23;;;8.70;;
18752;SDS011;9505;50.882;5.350;2023-02-28T03:48:50;36.83;;;8.40;;
18752;SDS011;9505;50.882;5.350;2023-02-28T03:51:21;45.03;;;8.57;;
18752;SDS011;9505;50.882;5.350;2023-02-28T03:53:53;45.63;;;9.10;;
18752;SDS011;9505;50.882;5.350;2023-02-28T03:56:24;41.47;;;9.23;;
18752;SDS011;9505;50.882;5.350;2023-02-28T04:01:42;49.17;;;10.13;;
18752;SDS011;9505;50.882;5.350;2023-02-28T04:04:10;45.37;;;9.67;;
18752;SDS011;9505;50.882;5.350;2023-02-28T04:06:37;50.23;;;9.60;;
18752;SDS011;9505;50.882;5.350;2023-02-28T04:09:04;41.97;;;9.73;;
18752;SDS011;9505;50.882;5.350;2023-02-28T04:11:37;40.50;;;9.47;;
18752;SDS011;9505;50.882;5.350;2023-02-28T04:14:05;45.23;;;9.90;;
18752;SDS011;9505;50.882;5.350;2023-02-28T04:16:33;39.70;;;9.43;;
18752;SDS011;9505;50.882;5.350;2023-02-28T04:18:59;40.20;;;9.13;;
18752;SDS011;9505;50.882;5.350;2023-02-28T04:21:30;46.30;;;9.57;;
18752;SDS011;9505;50.882;5.350;2023-02-28T04:23:56;45.77;;;9.23;;
18752;SDS011;9505;50.882;5.350;2023-02-28T04:26:25;38.97;;;8.57;;
18752;SDS011;9505;50.882;5.350;2023-02-28T04:28:55;40.63;;;8.80;;
18752;SDS011;9505;50.882;5.350;2023-02-28T04:31:21;39.33;;;8.97;;
18752;SDS011;9505;50.882;5.350;2023-02-28T04:33:46;53.77;;;10.97;;
18752;SDS011;9505;50.882;5.350;2023-02-28T04:36:12;47.03;;;10.00;;
18752;SDS011;9505;50.882;5.350;2023-02-28T04:38:39;48.23;;;10.33;;
18752;SDS011;9505;50.882;5.350;2023-02-28T04:41:05;42.20;;;9.87;;
18752;SDS011;9505;50.882;5.350;2023-02-28T04:43:31;41.53;;;9.53;;
18752;SDS011;9505;50.882;5.350;2023-02-28T04:45:57;49.47;;;10.13;;
18752;SDS011;9505;50.882;5.350;2023-02-28T04:48:29;42.90;;;10.13;;
18752;SDS011;9505;50.882;5.350;2023-02-28T04:51:00;40.73;;;10.47;;
18752;SDS011;9505;50.882;5.350;2023-02-28T04:53:27;48.40;;;10.57;;
18752;SDS011;9505;50.882;5.350;2023-02-28T04:55:53;42.87;;;10.50;;
18752;SDS011;9505;50.882;5.350;2023-02-28T04:58:18;50.53;;;11.13;;
18752;SDS011;9505;50.882;5.350;2023-02-28T05:00:44;53.40;;;11.67;;
18752;SDS011;9505;50.882;5.350;2023-02-28T05:03:10;39.50;;;10.70;;
18752;SDS011;9505;50.882;5.350;2023-02-28T05:05:35;50.50;;;11.13;;
18752;SDS011;9505;50.882;5.350;2023-02-28T05:08:01;47.37;;;10.03;;
18752;SDS011;9505;50.882;5.350;2023-02-28T05:10:26;42.47;;;8.97;;
18752;SDS011;9505;50.882;5.350;2023-02-28T05:12:52;48.60;;;10.53;;
18752;SDS011;9505;50.882;5.350;2023-02-28T05:15:17;45.67;;;9.60;;
18752;SDS011;9505;50.882;5.350;2023-02-28T05:17:43;44.10;;;9.13;;
18752;SDS011;9505;50.882;5.350;2023-02-28T05:20:09;46.73;;;9.77;;
18752;SDS011;9505;50.882;5.350;2023-02-28T05:22:38;47.20;;;10.37;;
18752;SDS011;9505;50.882;5.350;2023-02-28T05:25:05;49.63;;;10.83;;
18752;SDS011;9505;50.882;5.350;2023-02-28T05:27:31;51.03;;;10.37;;
18752;SDS011;9505;50.882;5.350;2023-02-28T05:29:57;42.53;;;8.97;;
18752;SDS011;9505;50.882;5.350;2023-02-28T05:32:23;48.03;;;10.70;;
18752;SDS011;9505;50.882;5.350;2023-02-28T05:34:49;49.70;;;9.57;;
18752;SDS011;9505;50.882;5.350;2023-02-28T05:37:15;35.93;;;8.30;;
18752;SDS011;9505;50.882;5.350;2023-02-28T05:39:41;43.27;;;9.50;;
18752;SDS011;9505;50.882;5.350;2023-02-28T05:42:08;43.73;;;10.47;;
18752;SDS011;9505;50.882;5.350;2023-02-28T05:44:35;44.60;;;10.37;;
18752;SDS011;9505;50.882;5.350;2023-02-28T05:47:01;44.60;;;9.83;;
18752;SDS011;9505;50.882;5.350;2023-02-28T05:49:26;57.77;;;11.40;;
18752;SDS011;9505;50.882;5.350;2023-02-28T05:51:52;52.23;;;11.50;;
18752;SDS011;9505;50.882;5.350;2023-02-28T05:54:18;40.10;;;10.53;;
18752;SDS011;9505;50.882;5.350;2023-02-28T05:56:43;45.93;;;10.67;;
18752;SDS011;9505;50.882;5.350;2023-02-28T05:59:10;52.20;;;11.47;;
18752;SDS011;9505;50.882;5.350;2023-02-28T06:01:40;42.23;;;11.13;;
18752;SDS011;9505;50.882;5.350;2023-02-28T06:04:10;46.90;;;11.73;;
18752;SDS011;9505;50.882;5.350;2023-02-28T06:06:36;36.47;;;9.10;;
18752;SDS011;9505;50.882;5.350;2023-02-28T06:09:02;38.47;;;10.07;;
18752;SDS011;9505;50.882;5.350;2023-02-28T06:11:31;39.40;;;10.30;;
18752;SDS011;9505;50.882;5.350;2023-02-28T06:13:57;41.40;;;11.20;;
18752;SDS011;9505;50.882;5.350;2023-02-28T06:16:25;47.57;;;11.07;;
18752;SDS011;9505;50.882;5.350;2023-02-28T06:18:51;43.93;;;10.63;;
18752;SDS011;9505;50.882;5.350;2023-02-28T06:21:23;41.87;;;11.00;;
18752;SDS011;9505;50.882;5.350;2023-02-28T06:23:49;53.43;;;11.30;;
18752;SDS011;9505;50.882;5.350;2023-02-28T06:26:15;50.93;;;11.63;;
18752;SDS011;9505;50.882;5.350;2023-02-28T06:28:41;47.83;;;10.63;;
18752;SDS011;9505;50.882;5.350;2023-02-28T06:31:07;53.27;;;10.87;;
18752;SDS011;9505;50.882;5.350;2023-02-28T06:33:37;45.20;;;9.73;;
18752;SDS011;9505;50.882;5.350;2023-02-28T06:36:04;38.33;;;9.40;;
18752;SDS011;9505;50.882;5.350;2023-02-28T06:38:31;45.53;;;10.83;;
18752;SDS011;9505;50.882;5.350;2023-02-28T06:40:57;45.50;;;10.80;;
18752;SDS011;9505;50.882;5.350;2023-02-28T06:43:24;47.47;;;10.63;;
18752;SDS011;9505;50.882;5.350;2023-02-28T06:45:53;44.67;;;10.03;;
18752;SDS011;9505;50.882;5.350;2023-02-28T06:48:20;44.60;;;10.87;;
18752;SDS011;9505;50.882;5.350;2023-02-28T06:50:46;37.37;;;11.00;;
18752;SDS011;9505;50.882;5.350;2023-02-28T06:53:12;45.67;;;11.20;;
18752;SDS011;9505;50.882;5.350;2023-02-28T06:55:38;46.90;;;11.17;;
18752;SDS011;9505;50.882;5.350;2023-02-28T06:58:04;51.83;;;12.33;;
18752;SDS011;9505;50.882;5.350;2023-02-28T07:00:40;43.17;;;10.93;;
18752;SDS011;9505;50.882;5.350;2023-02-28T07:03:09;43.87;;;11.10;;
18752;SDS011;9505;50.882;5.350;2023-02-28T07:05:36;44.73;;;11.03;;
18752;SDS011;9505;50.882;5.350;2023-02-28T07:08:03;43.27;;;10.57;;
18752;SDS011;9505;50.882;5.350;2023-02-28T07:10:30;45.37;;;11.57;;
18752;SDS011;9505;50.882;5.350;2023-02-28T07:12:57;56.43;;;12.50;;
18752;SDS011;9505;50.882;5.350;2023-02-28T07:15:23;44.30;;;11.33;;
18752;SDS011;9505;50.882;5.350;2023-02-28T07:17:49;43.80;;;11.87;;
18752;SDS011;9505;50.882;5.350;2023-02-28T07:20:15;39.90;;;10.80;;
18752;SDS011;9505;50.882;5.350;2023-02-28T07:22:41;43.57;;;11.13;;
18752;SDS011;9505;50.882;5.350;2023-02-28T07:25:06;46.17;;;11.80;;
18752;SDS011;9505;50.882;5.350;2023-02-28T07:27:33;48.13;;;12.63;;
18752;SDS011;9505;50.882;5.350;2023-02-28T07:29:59;47.20;;;11.93;;
18752;SDS011;9505;50.882;5.350;2023-02-28T07:32:26;53.23;;;12.87;;
18752;SDS011;9505;50.882;5.350;2023-02-28T07:34:53;45.00;;;11.50;;
18752;SDS011;9505;50.882;5.350;2023-02-28T07:37:18;48.70;;;11.07;;
18752;SDS011;9505;50.882;5.350;2023-02-28T07:39:44;50.53;;;12.33;;
18752;SDS011;9505;50.882;5.350;2023-02-28T07:42:10;46.60;;;12.30;;
18752;SDS011;9505;50.882;5.350;2023-02-28T07:44:37;46.63;;;12.47;;
18752;SDS011;9505;50.882;5.350;2023-02-28T07:47:07;49.30;;;12.30;;
18752;SDS011;9505;50.882;5.350;2023-02-28T07:49:37;42.33;;;11.53;;
18752;SDS011;9505;50.882;5.350;2023-02-28T07:52:03;44.97;;;12.30;;
18752;SDS011;9505;50.882;5.350;2023-02-28T07:54:30;44.63;;;12.40;;
18752;SDS011;9505;50.882;5.350;2023-02-28T07:56:56;45.22;;;12.50;;
18752;SDS011;9505;50.882;5.350;2023-02-28T07:59:21;45.00;;;12.35;;
18752;SDS011;9505;50.882;5.350;2023-02-28T08:01:47;52.47;;;12.93;;
18752;SDS011;9505;50.882;5.350;2023-02-28T08:04:15;46.35;;;11.70;;
18752;SDS011;9505;50.882;5.350;2023-02-28T08:06:41;43.03;;;12.48;;
18752;SDS011;9505;50.882;5.350;2023-02-28T08:09:07;45.45;;;11.65;;
18752;SDS011;9505;50.882;5.350;2023-02-28T08:11:32;39.92;;;11.18;;
18752;SDS011;9505;50.882;5.350;2023-02-28T08:13:58;35.10;;;10.00;;
18752;SDS011;9505;50.882;5.350;2023-02-28T08:16:23;37.80;;;9.68;;
18752;SDS011;9505;50.882;5.350;2023-02-28T08:18:50;36.53;;;9.00;;
18752;SDS011;9505;50.882;5.350;2023-02-28T08:21:16;35.42;;;8.23;;
18752;SDS011;9505;50.882;5.350;2023-02-28T08:23:42;41.13;;;8.80;;
18752;SDS011;9505;50.882;5.350;2023-02-28T08:26:07;30.38;;;6.90;;
18752;SDS011;9505;50.882;5.350;2023-02-28T08:28:33;33.80;;;6.88;;
18752;SDS011;9505;50.882;5.350;2023-02-28T08:30:59;38.47;;;7.63;;
18752;SDS011;9505;50.882;5.350;2023-02-28T08:33:25;37.95;;;7.15;;
18752;SDS011;9505;50.882;5.350;2023-02-28T08:35:53;39.55;;;7.43;;
18752;SDS011;9505;50.882;5.350;2023-02-28T08:38:19;34.88;;;6.82;;
18752;SDS011;9505;50.882;5.350;2023-02-28T08:40:45;37.13;;;7.15;;
18752;SDS011;9505;50.882;5.350;2023-02-28T08:43:10;31.27;;;6.72;;
18752;SDS011;9505;50.882;5.350;2023-02-28T08:45:36;29.00;;;6.57;;
18752;SDS011;9505;50.882;5.350;2023-02-28T08:48:02;39.70;;;7.70;;
18752;SDS011;9505;50.882;5.350;2023-02-28T08:50:27;33.83;;;6.13;;
18752;SDS011;9505;50.882;5.350;2023-02-28T08:52:53;29.65;;;5.10;;
18752;SDS011;9505;50.882;5.350;2023-02-28T08:55:18;32.92;;;6.35;;
18752;SDS011;9505;50.882;5.350;2023-02-28T08:57:44;28.05;;;6.03;;
18752;SDS011;9505;50.882;5.350;2023-02-28T09:00:10;31.15;;;5.82;;
18752;SDS011;9505;50.882;5.350;2023-02-28T09:02:38;38.38;;;6.60;;
18752;SDS011;9505;50.882;5.350;2023-02-28T09:05:04;34.95;;;6.50;;
18752;SDS011;9505;50.882;5.350;2023-02-28T09:07:30;35.75;;;5.85;;
18752;SDS011;9505;50.882;5.350;2023-02-28T09:09:56;34.08;;;6.15;;
18752;SDS011;9505;50.882;5.350;2023-02-28T09:12:23;27.58;;;5.18;;
18752;SDS011;9505;50.882;5.350;2023-02-28T09:14:50;30.10;;;5.18;;
18752;SDS011;9505;50.882;5.350;2023-02-28T09:17:16;19.83;;;3.92;;
18752;SDS011;9505;50.882;5.350;2023-02-28T09:19:43;25.27;;;4.78;;
18752;SDS011;9505;50.882;5.350;2023-02-28T09:22:09;29.67;;;4.68;;
18752;SDS011;9505;50.882;5.350;2023-02-28T09:24:36;20.65;;;3.65;;
18752;SDS011;9505;50.882;5.350;2023-02-28T09:27:03;31.63;;;4.95;;
18752;SDS011;9505;50.882;5.350;2023-02-28T09:29:29;33.60;;;4.80;;
18752;SDS011;9505;50.882;5.350;2023-02-28T09:31:55;17.75;;;3.55;;
18752;SDS011;9505;50.882;5.350;2023-02-28T09:34:23;36.60;;;4.82;;
18752;SDS011;9505;50.882;5.350;2023-02-28T09:36:49;26.75;;;3.90;;
18752;SDS011;9505;50.882;5.350;2023-02-28T09:39:19;16.15;;;3.10;;
18752;SDS011;9505;50.882;5.350;2023-02-28T09:41:47;27.92;;;4.47;;
18752;SDS011;9505;50.882;5.350;2023-02-28T09:44:40;28.40;;;4.50;;
18752;SDS011;9505;50.882;5.350;2023-02-28T09:47:17;17.55;;;2.92;;
18752;SDS011;9505;50.882;5.350;2023-02-28T09:50:39;20.02;;;3.47;;
18752;SDS011;9505;50.882;5.350;2023-02-28T09:52:58;31.95;;;4.68;;
18752;SDS011;9505;50.882;5.350;2023-02-28T09:58:20;16.20;;;3.03;;
18752;SDS011;9505;50.882;5.350;2023-02-28T10:01:12;27.75;;;4.15;;
18752;SDS011;9505;50.882;5.350;2023-02-28T10:06:20;14.10;;;3.20;;
18752;SDS011;9505;50.882;5.350;2023-02-28T10:08:52;32.67;;;4.75;;
18752;SDS011;9505;50.882;5.350;2023-02-28T10:11:26;31.55;;;4.75;;
18752;SDS011;9505;50.882;5.350;2023-02-28T10:16:45;26.05;;;4.05;;
18752;SDS011;9505;50.882;5.350;2023-02-28T10:22:14;37.65;;;5.10;;
18752;SDS011;9505;50.882;5.350;2023-02-28T10:24:51;31.20;;;4.43;;
18752;SDS011;9505;50.882;5.350;2023-02-28T10:27:19;26.13;;;3.65;;
18752;SDS011;9505;50.882;5.350;2023-02-28T10:32:19;19.95;;;3.03;;
18752;SDS011;9505;50.882;5.350;2023-02-28T10:34:51;16.65;;;2.83;;
18752;SDS011;9505;50.882;5.350;2023-02-28T10:37:24;12.52;;;2.35;;
18752;SDS011;9505;50.882;5.350;2023-02-28T10:39:49;24.55;;;3.72;;
18752;SDS011;9505;50.882;5.350;2023-02-28T10:42:23;14.48;;;2.80;;
18752;SDS011;9505;50.882;5.350;2023-02-28T10:45:06;22.65;;;3.10;;
18752;SDS011;9505;50.882;5.350;2023-02-28T10:53:10;15.05;;;2.58;;
18752;SDS011;9505;50.882;5.350;2023-02-28T10:55:39;28.70;;;3.65;;
18752;SDS011;9505;50.882;5.350;2023-02-28T10:58:18;34.10;;;4.45;;
18752;SDS011;9505;50.882;5.350;2023-02-28T11:00:47;27.63;;;4.18;;
18752;SDS011;9505;50.882;5.350;2023-02-28T11:03:33;26.15;;;3.75;;
18752;SDS011;9505;50.882;5.350;2023-02-28T11:06:07;30.20;;;3.95;;
18752;SDS011;9505;50.882;5.350;2023-02-28T11:09:39;31.73;;;4.60;;
18752;SDS011;9505;50.882;5.350;2023-02-28T11:11:46;16.55;;;3.17;;
18752;SDS011;9505;50.882;5.350;2023-02-28T11:14:18;21.90;;;3.30;;
18752;SDS011;9505;50.882;5.350;2023-02-28T11:16:46;26.90;;;3.92;;
18752;SDS011;9505;50.882;5.350;2023-02-28T11:19:23;23.38;;;3.60;;
18752;SDS011;9505;50.882;5.350;2023-02-28T11:22:00;9.90;;;2.17;;
18752;SDS011;9505;50.882;5.350;2023-02-28T11:26:59;21.95;;;3.50;;
18752;SDS011;9505;50.882;5.350;2023-02-28T11:29:28;32.95;;;3.80;;
18752;SDS011;9505;50.882;5.350;2023-02-28T11:34:34;25.92;;;3.60;;
18752;SDS011;9505;50.882;5.350;2023-02-28T11:37:00;27.52;;;3.92;;
18752;SDS011;9505;50.882;5.350;2023-02-28T11:39:30;30.02;;;3.92;;
18752;SDS011;9505;50.882;5.350;2023-02-28T11:55:39;30.58;;;3.80;;
18752;SDS011;9505;50.882;5.350;2023-02-28T12:03:39;12.77;;;2.03;;
18752;SDS011;9505;50.882;5.350;2023-02-28T12:06:15;25.85;;;3.92;;
18752;SDS011;9505;50.882;5.350;2023-02-28T12:11:48;34.30;;;4.35;;
18752;SDS011;9505;50.882;5.350;2023-02-28T12:17:22;23.77;;;3.55;;
18752;SDS011;9505;50.882;5.350;2023-02-28T12:27:33;16.02;;;2.92;;
18752;SDS011;9505;50.882;5.350;2023-02-28T12:32:42;22.00;;;3.50;;
18752;SDS011;9505;50.882;5.350;2023-02-28T12:35:12;24.10;;;3.55;;
18752;SDS011;9505;50.882;5.350;2023-02-28T12:37:47;19.25;;;3.33;;
18752;SDS011;9505;50.882;5.350;2023-02-28T12:40:25;25.98;;;4.28;;
18752;SDS011;9505;50.882;5.350;2023-02-28T12:42:57;29.30;;;4.10;;
18752;SDS011;9505;50.882;5.350;2023-02-28T12:45:27;30.45;;;4.60;;
18752;SDS011;9505;50.882;5.350;2023-02-28T12:47:58;27.42;;;4.20;;
18752;SDS011;9505;50.882;5.350;2023-02-28T12:50:28;24.58;;;4.03;;
18752;SDS011;9505;50.882;5.350;2023-02-28T12:53:03;35.35;;;5.13;;
18752;SDS011;9505;50.882;5.350;2023-02-28T12:55:43;28.88;;;4.68;;
18752;SDS011;9505;50.882;5.350;2023-02-28T12:58:45;31.45;;;4.55;;
18752;SDS011;9505;50.882;5.350;2023-02-28T13:01:21;37.60;;;4.88;;
18752;SDS011;9505;50.882;5.350;2023-02-28T13:16:58;32.50;;;4.93;;
18752;SDS011;9505;50.882;5.350;2023-02-28T13:19:25;35.20;;;5.13;;
18752;SDS011;9505;50.882;5.350;2023-02-28T13:21:53;32.40;;;4.97;;
18752;SDS011;9505;50.882;5.350;2023-02-28T13:24:36;36.65;;;5.60;;
18752;SDS011;9505;50.882;5.350;2023-02-28T13:29:35;29.98;;;4.80;;
18752;SDS011;9505;50.882;5.350;2023-02-28T13:34:30;28.52;;;4.60;;
18752;SDS011;9505;50.882;5.350;2023-02-28T13:50:42;57.53;;;7.57;;
18752;SDS011;9505;50.882;5.350;2023-02-28T14:01:35;53.05;;;7.10;;
18752;SDS011;9505;50.882;5.350;2023-02-28T14:06:51;67.03;;;8.70;;
18752;SDS011;9505;50.882;5.350;2023-02-28T14:09:53;45.35;;;6.32;;
18752;SDS011;9505;50.882;5.350;2023-02-28T14:18:05;61.08;;;8.27;;
18752;SDS011;9505;50.882;5.350;2023-02-28T14:20:58;33.35;;;4.93;;
18752;SDS011;9505;50.882;5.350;2023-02-28T14:34:39;27.30;;;4.55;;
18752;SDS011;9505;50.882;5.350;2023-02-28T14:37:20;56.70;;;7.65;;
18752;SDS011;9505;50.882;5.350;2023-02-28T14:39:52;48.90;;;7.20;;
18752;SDS011;9505;50.882;5.350;2023-02-28T14:42:29;31.35;;;5.20;;
18752;SDS011;9505;50.882;5.350;2023-02-28T14:44:55;33.63;;;5.40;;
18752;SDS011;9505;50.882;5.350;2023-02-28T14:47:25;36.20;;;5.57;;
18752;SDS011;9505;50.882;5.350;2023-02-28T14:49:55;33.67;;;5.03;;
18752;SDS011;9505;50.882;5.350;2023-02-28T14:52:22;28.00;;;4.43;;
18752;SDS011;9505;50.882;5.350;2023-02-28T14:54:53;56.22;;;7.95;;
18752;SDS011;9505;50.882;5.350;2023-02-28T14:57:25;40.60;;;6.25;;
18752;SDS011;9505;50.882;5.350;2023-02-28T15:00:35;54.28;;;8.02;;
18752;SDS011;9505;50.882;5.350;2023-02-28T15:02:46;51.40;;;7.53;;
18752;SDS011;9505;50.882;5.350;2023-02-28T15:07:37;37.50;;;7.15;;
18752;SDS011;9505;50.882;5.350;2023-02-28T15:10:16;65.65;;;9.80;;
18752;SDS011;9505;50.882;5.350;2023-02-28T15:12:45;44.38;;;6.55;;
18752;SDS011;9505;50.882;5.350;2023-02-28T15:15:19;30.48;;;5.82;;
18752;SDS011;9505;50.882;5.350;2023-02-28T15:17:46;62.15;;;9.60;;
18752;SDS011;9505;50.882;5.350;2023-02-28T15:20:16;67.07;;;8.70;;
18752;SDS011;9505;50.882;5.350;2023-02-28T15:22:43;59.20;;;8.68;;
18752;SDS011;9505;50.882;5.350;2023-02-28T15:25:13;43.33;;;6.50;;
18752;SDS011;9505;50.882;5.350;2023-02-28T15:27:44;53.92;;;7.85;;
18752;SDS011;9505;50.882;5.350;2023-02-28T15:30:16;43.55;;;6.80;;
18752;SDS011;9505;50.882;5.350;2023-02-28T15:35:38;27.92;;;4.97;;
18752;SDS011;9505;50.882;5.350;2023-02-28T15:38:12;56.35;;;8.68;;
18752;SDS011;9505;50.882;5.350;2023-02-28T15:40:43;36.83;;;6.05;;
18752;SDS011;9505;50.882;5.350;2023-02-28T15:43:18;45.05;;;7.05;;
18752;SDS011;9505;50.882;5.350;2023-02-28T15:46:06;28.85;;;4.80;;
18752;SDS011;9505;50.882;5.350;2023-02-28T15:48:38;53.42;;;7.68;;
18752;SDS011;9505;50.882;5.350;2023-02-28T15:51:15;66.82;;;9.48;;
18752;SDS011;9505;50.882;5.350;2023-02-28T15:53:47;59.25;;;8.23;;
18752;SDS011;9505;50.882;5.350;2023-02-28T15:56:20;59.83;;;8.18;;
18752;SDS011;9505;50.882;5.350;2023-02-28T15:58:55;49.63;;;7.07;;
18752;SDS011;9505;50.882;5.350;2023-02-28T16:01:32;59.65;;;8.35;;
18752;SDS011;9505;50.882;5.350;2023-02-28T16:04:15;51.92;;;7.57;;
18752;SDS011;9505;50.882;5.350;2023-02-28T16:09:14;44.33;;;6.70;;
18752;SDS011;9505;50.882;5.350;2023-02-28T16:11:42;50.03;;;7.43;;
18752;SDS011;9505;50.882;5.350;2023-02-28T16:14:23;46.97;;;7.40;;
18752;SDS011;9505;50.882;5.350;2023-02-28T16:16:53;27.40;;;4.65;;
18752;SDS011;9505;50.882;5.350;2023-02-28T16:19:21;35.83;;;5.38;;
18752;SDS011;9505;50.882;5.350;2023-02-28T16:21:47;59.28;;;8.57;;
18752;SDS011;9505;50.882;5.350;2023-02-28T16:24:13;60.15;;;8.43;;
18752;SDS011;9505;50.882;5.350;2023-02-28T16:26:40;40.05;;;6.35;;
18752;SDS011;9505;50.882;5.350;2023-02-28T16:29:06;53.58;;;8.02;;
18752;SDS011;9505;50.882;5.350;2023-02-28T16:31:37;28.23;;;5.25;;
18752;SDS011;9505;50.882;5.350;2023-02-28T16:34:04;47.10;;;7.10;;
18752;SDS011;9505;50.882;5.350;2023-02-28T16:36:30;61.55;;;8.73;;
18752;SDS011;9505;50.882;5.350;2023-02-28T16:38:55;55.65;;;8.23;;
18752;SDS011;9505;50.882;5.350;2023-02-28T16:41:22;31.35;;;5.43;;
18752;SDS011;9505;50.882;5.350;2023-02-28T16:43:51;31.35;;;5.93;;
18752;SDS011;9505;50.882;5.350;2023-02-28T16:46:19;40.95;;;6.10;;
18752;SDS011;9505;50.882;5.350;2023-02-28T16:48:46;51.83;;;7.82;;
18752;SDS011;9505;50.882;5.350;2023-02-28T16:51:16;64.25;;;9.32;;
18752;SDS011;9505;50.882;5.350;2023-02-28T16:53:43;52.42;;;7.25;;
18752;SDS011;9505;50.882;5.350;2023-02-28T16:56:14;39.90;;;6.68;;
18752;SDS011;9505;50.882;5.350;2023-02-28T16:58:43;31.00;;;5.53;;
18752;SDS011;9505;50.882;5.350;2023-02-28T17:01:09;42.28;;;7.07;;
18752;SDS011;9505;50.882;5.350;2023-02-28T17:03:34;53.75;;;7.63;;
18752;SDS011;9505;50.882;5.350;2023-02-28T17:06:01;65.60;;;8.73;;
18752;SDS011;9505;50.882;5.350;2023-02-28T17:08:28;38.80;;;6.18;;
18752;SDS011;9505;50.882;5.350;2023-02-28T17:10:54;35.47;;;5.20;;
18752;SDS011;9505;50.882;5.350;2023-02-28T17:13:20;74.43;;;9.10;;
18752;SDS011;9505;50.882;5.350;2023-02-28T17:15:46;72.95;;;9.18;;
18752;SDS011;9505;50.882;5.350;2023-02-28T17:18:16;47.30;;;6.78;;
18752;SDS011;9505;50.882;5.350;2023-02-28T17:20:46;42.30;;;6.43;;
18752;SDS011;9505;50.882;5.350;2023-02-28T17:23:11;38.05;;;6.03;;
18752;SDS011;9505;50.882;5.350;2023-02-28T17:25:37;65.07;;;8.95;;
18752;SDS011;9505;50.882;5.350;2023-02-28T17:28:03;70.57;;;9.60;;
18752;SDS011;9505;50.882;5.350;2023-02-28T17:30:32;48.13;;;7.20;;
18752;SDS011;9505;50.882;5.350;2023-02-28T17:32:59;41.42;;;5.93;;
18752;SDS011;9505;50.882;5.350;2023-02-28T17:35:25;40.90;;;6.15;;
18752;SDS011;9505;50.882;5.350;2023-02-28T17:37:51;66.32;;;9.10;;
18752;SDS011;9505;50.882;5.350;2023-02-28T17:40:19;50.83;;;6.93;;
18752;SDS011;9505;50.882;5.350;2023-02-28T17:42:46;47.45;;;6.65;;
18752;SDS011;9505;50.882;5.350;2023-02-28T17:45:12;43.47;;;7.20;;
18752;SDS011;9505;50.882;5.350;2023-02-28T17:47:38;58.97;;;8.13;;
18752;SDS011;9505;50.882;5.350;2023-02-28T17:50:05;69.45;;;9.60;;